Time;durP1;ratioP1;P1;durP2;ratioP2;P2;SDS_P1;SDS_P2;PMS_P1;PMS_P2;Temp;Humidity;BMP_temperature;BMP_pressure;BME280_temperature;BME280_humidity;BME280_pressure;Samples;Min_cycle;Max_cycle;Signal;HPM_P1;HPM_P2
2021/01/26 00:00:52;;;;;;;32.58;18.05;;;0.70;99.90;;;;;;5068601;28;20395;-54
2021/01/26 00:03:18;;;;;;;32.17;17.98;;;0.60;99.90;;;;;;5068781;28;20375;-53
2021/01/26 00:05:44;;;;;;;32.10;17.30;;;0.70;99.90;;;;;;5068477;28;20430;-54
2021/01/26 00:08:10;;;;;;;32.47;17.00;;;2.20;99.90;;;;;;5081457;28;20473;-53
2021/01/26 00:10:36;;;;;;;30.60;17.30;;;0.70;99.90;;;;;;5087325;28;20400;-53
2021/01/26 00:13:03;;;;;;;28.77;16.87;;;0.60;99.90;;;;;;5092351;28;20378;-53
2021/01/26 00:15:28;;;;;;;28.45;16.58;;;2.30;99.90;;;;;;5090609;28;20488;-53
2021/01/26 00:17:55;;;;;;;27.97;15.90;;;0.60;99.90;;;;;;5093527;28;20474;-53
2021/01/26 00:20:21;;;;;;;30.92;16.80;;;0.60;99.90;;;;;;5092373;28;20859;-53
2021/01/26 00:22:47;;;;;;;29.83;16.05;;;2.90;99.90;;;;;;5091513;28;20468;-53
2021/01/26 00:25:20;;;;;;;30.88;17.17;;;0.60;99.90;;;;;;5092348;28;20517;-53
2021/01/26 00:27:45;;;;;;;28.90;16.00;;;0.60;99.90;;;;;;5071818;28;20453;-54
2021/01/26 00:30:22;;;;;;;29.20;16.52;;;0.60;99.90;;;;;;5072401;28;20736;-53
2021/01/26 00:32:48;;;;;;;27.40;15.57;;;0.70;99.90;;;;;;5072113;28;20395;-53
2021/01/26 00:35:16;;;;;;;29.52;15.50;;;0.70;99.90;;;;;;5071906;28;20415;-53
2021/01/26 00:37:41;;;;;;;25.90;15.60;;;0.70;99.90;;;;;;5072071;28;20425;-53
2021/01/26 00:40:08;;;;;;;28.57;15.40;;;0.60;99.90;;;;;;5072147;28;20386;-53
2021/01/26 00:42:34;;;;;;;31.80;16.55;;;0.50;99.90;;;;;;5091118;28;20378;-53
2021/01/26 00:44:59;;;;;;;30.20;17.27;;;0.40;99.90;;;;;;5091694;28;20425;-54
2021/01/26 00:47:25;;;;;;;33.17;18.30;;;0.40;99.90;;;;;;5091983;28;20377;-53
2021/01/26 00:49:51;;;;;;;30.83;17.57;;;2.10;99.90;;;;;;5090099;28;20404;-53
2021/01/26 00:52:16;;;;;;;32.43;17.97;;;0.40;99.90;;;;;;5091772;28;20366;-53
2021/01/26 00:54:42;;;;;;;30.15;17.02;;;0.50;99.90;;;;;;5090343;28;20867;-53
2021/01/26 00:57:07;;;;;;;27.00;16.27;;;2.80;99.90;;;;;;5092187;28;20382;-53
2021/01/26 00:59:33;;;;;;;26.10;14.70;;;3.20;99.90;;;;;;5090383;28;20883;-54
2021/01/26 01:01:58;;;;;;;26.23;15.50;;;0.50;99.90;;;;;;5091288;28;20846;-54
2021/01/26 01:04:24;;;;;;;22.55;13.65;;;0.40;99.90;;;;;;5075015;28;20401;-54
2021/01/26 01:06:50;;;;;;;25.35;13.77;;;0.30;99.90;;;;;;5086979;28;20385;-54
2021/01/26 01:09:16;;;;;;;27.37;14.80;;;0.20;99.90;;;;;;5078896;28;20395;-54
2021/01/26 01:11:42;;;;;;;23.83;14.03;;;0.20;99.90;;;;;;5075234;28;20380;-53
2021/01/26 01:14:08;;;;;;;26.90;14.40;;;0.80;99.90;;;;;;5071776;28;20395;-54
2021/01/26 01:16:34;;;;;;;21.73;13.00;;;0.30;99.90;;;;;;5071154;28;20414;-54
2021/01/26 01:18:59;;;;;;;23.73;13.80;;;2.60;99.90;;;;;;5070935;28;20735;-54
2021/01/26 01:21:25;;;;;;;24.33;13.40;;;0.40;99.90;;;;;;5070161;28;20395;-53
2021/01/26 01:23:51;;;;;;;24.42;13.38;;;0.40;99.90;;;;;;5071784;28;20379;-53
2021/01/26 01:26:16;;;;;;;22.13;12.65;;;0.40;99.90;;;;;;5070069;28;20420;-53
2021/01/26 01:28:42;;;;;;;20.87;11.73;;;0.40;99.90;;;;;;5071608;28;20371;-53
2021/01/26 01:31:07;;;;;;;25.65;12.85;;;3.10;99.90;;;;;;5071780;28;20406;-54
2021/01/26 01:33:33;;;;;;;20.15;12.43;;;0.40;99.90;;;;;;5069716;28;20415;-54
2021/01/26 01:35:59;;;;;;;24.03;13.20;;;2.90;99.90;;;;;;5071610;28;20376;-53
2021/01/26 01:38:24;;;;;;;21.03;12.40;;;2.50;99.90;;;;;;5069998;28;20407;-53
2021/01/26 01:40:52;;;;;;;21.10;11.52;;;0.40;99.90;;;;;;5071755;28;20801;-53
2021/01/26 01:43:18;;;;;;;23.38;12.23;;;0.40;99.90;;;;;;5069648;28;20792;-53
2021/01/26 01:45:44;;;;;;;19.25;10.85;;;1.60;99.90;;;;;;5070192;28;20404;-53
2021/01/26 01:48:38;;;;;;;21.60;11.57;;;0.50;99.90;;;;;;5071033;28;20456;-53
2021/01/26 01:51:33;;;;;;;19.55;10.10;;;0.50;99.90;;;;;;5066791;28;20399;-54
2021/01/26 01:54:17;;;;;;;18.42;9.57;;;0.50;99.90;;;;;;5087073;28;20476;-54
2021/01/26 01:57:01;;;;;;;15.02;8.63;;;0.50;99.90;;;;;;5089329;28;20439;-54
2021/01/26 01:59:35;;;;;;;16.70;9.03;;;0.40;99.90;;;;;;5090396;28;20802;-54
2021/01/26 02:02:03;;;;;;;16.30;9.45;;;0.70;99.90;;;;;;5090557;28;20386;-54
2021/01/26 02:04:31;;;;;;;16.27;9.15;;;0.30;99.90;;;;;;5089923;28;20478;-54
2021/01/26 02:06:57;;;;;;;16.05;9.50;;;0.30;99.90;;;;;;5091224;28;20855;-54
2021/01/26 02:09:27;;;;;;;18.05;9.45;;;2.20;99.90;;;;;;5088412;28;20424;-54
2021/01/26 02:11:53;;;;;;;16.05;9.18;;;2.20;99.90;;;;;;5090845;28;20378;-54
2021/01/26 02:14:19;;;;;;;19.42;10.07;;;2.80;99.90;;;;;;5087780;28;20467;-54
2021/01/26 02:17:27;;;;;;;16.73;9.20;;;3.30;99.90;;;;;;5090570;28;20389;-54
2021/01/26 02:20:12;;;;;;;16.75;9.82;;;0.60;99.90;;;;;;5088559;28;20731;-54
2021/01/26 02:23:05;;;;;;;15.82;8.30;;;0.60;99.90;;;;;;5090095;28;20800;-54
2021/01/26 02:25:57;;;;;;;18.67;10.02;;;0.60;99.90;;;;;;5087772;28;20483;-54
2021/01/26 02:28:48;;;;;;;20.15;10.38;;;0.50;99.90;;;;;;5038688;28;20396;-54
2021/01/26 02:31:36;;;;;;;20.58;10.38;;;0.60;99.90;;;;;;5069853;28;20914;-54
2021/01/26 02:34:28;;;;;;;18.77;10.07;;;0.80;99.90;;;;;;5089964;28;20865;-54
2021/01/26 02:37:19;;;;;;;21.25;10.70;;;0.90;99.90;;;;;;5089186;28;20835;-54
2021/01/26 02:40:17;;;;;;;19.50;10.07;;;0.80;99.90;;;;;;5079148;28;20397;-54
2021/01/26 02:42:54;;;;;;;21.60;9.85;;;0.80;99.90;;;;;;5034180;28;20385;-54
2021/01/26 02:45:43;;;;;;;20.95;10.75;;;2.30;99.90;;;;;;5089023;28;20918;-53
2021/01/26 02:48:14;;;;;;;21.63;10.73;;;1.00;99.90;;;;;;5089142;28;20462;-53
2021/01/26 02:50:46;;;;;;;18.00;9.90;;;1.00;99.90;;;;;;5090002;28;20434;-54
2021/01/26 02:53:19;;;;;;;19.20;9.70;;;2.60;99.90;;;;;;5053952;28;20507;-54
2021/01/26 02:55:55;;;;;;;20.37;10.47;;;1.00;99.90;;;;;;5090494;28;20930;-53
2021/01/26 02:58:29;;;;;;;22.40;9.85;;;1.10;99.90;;;;;;5087142;28;20862;-53
2021/01/26 03:00:58;;;;;;;20.30;11.17;;;1.10;99.90;;;;;;5081795;28;20838;-54
2021/01/26 03:03:38;;;;;;;18.90;10.55;;;1.50;99.90;;;;;;5087357;28;20421;-54
2021/01/26 03:06:09;;;;;;;18.00;9.27;;;1.20;99.90;;;;;;5090495;28;20406;-53
2021/01/26 03:08:45;;;;;;;19.70;10.23;;;1.10;99.90;;;;;;5068584;28;20387;-54
2021/01/26 03:11:25;;;;;;;18.27;10.20;;;1.00;99.90;;;;;;5070168;28;20387;-54
2021/01/26 03:13:56;;;;;;;20.33;9.98;;;1.00;99.90;;;;;;5068889;28;20392;-54
2021/01/26 03:16:25;;;;;;;18.38;9.88;;;3.60;99.90;;;;;;5068724;28;20437;-53
2021/01/26 03:19:04;;;;;;;16.77;8.98;;;3.40;99.90;;;;;;5069809;28;20376;-54
2021/01/26 03:21:32;;;;;;;18.13;9.43;;;3.20;99.90;;;;;;5069339;28;20437;-54
2021/01/26 03:24:17;;;;;;;16.92;8.77;;;0.70;99.90;;;;;;5069444;28;20391;-54
2021/01/26 03:26:45;;;;;;;17.10;9.75;;;0.60;99.90;;;;;;5056310;28;20419;-54
2021/01/26 03:29:14;;;;;;;19.25;9.75;;;0.60;99.90;;;;;;5049501;28;20412;-55
2021/01/26 03:31:52;;;;;;;18.65;9.50;;;1.70;99.90;;;;;;5049538;28;20401;-53
2021/01/26 03:34:19;;;;;;;20.25;9.68;;;0.70;99.90;;;;;;5047893;28;20385;-53
2021/01/26 03:36:45;;;;;;;18.55;8.77;;;0.50;99.90;;;;;;5051291;28;20405;-54
2021/01/26 03:39:11;;;;;;;19.60;9.32;;;0.60;99.90;;;;;;5049481;28;20400;-54
2021/01/26 03:41:37;;;;;;;16.80;8.70;;;3.10;99.90;;;;;;5047394;28;20740;-54
2021/01/26 03:44:05;;;;;;;16.42;8.73;;;3.20;99.90;;;;;;5049484;28;20866;-54
2021/01/26 03:46:50;;;;;;;19.30;9.55;;;0.70;99.90;;;;;;5049755;28;20409;-53
2021/01/26 03:50:01;;;;;;;17.38;9.00;;;0.80;99.90;;;;;;5053189;28;20409;-53
2021/01/26 03:52:44;;;;;;;16.15;8.07;;;0.90;99.90;;;;;;5035343;28;20474;-53
2021/01/26 03:55:27;;;;;;;15.23;7.90;;;0.90;99.90;;;;;;5058668;28;20418;-54
2021/01/26 03:58:17;;;;;;;16.03;8.10;;;2.00;99.90;;;;;;5069814;28;20451;-53
2021/01/26 04:00:50;;;;;;;14.50;7.50;;;0.90;99.90;;;;;;5052871;28;20404;-53
2021/01/26 04:03:50;;;;;;;14.45;7.38;;;3.50;99.90;;;;;;5065510;28;20541;-53
2021/01/26 04:06:39;;;;;;;12.07;6.07;;;0.80;99.90;;;;;;5051682;28;20417;-53
2021/01/26 04:09:10;;;;;;;14.15;6.80;;;0.70;99.90;;;;;;5042032;28;20401;-53
2021/01/26 04:11:47;;;;;;;11.80;5.70;;;0.80;99.90;;;;;;5052706;28;20396;-54
2021/01/26 04:14:35;;;;;;;10.40;5.20;;;0.80;99.90;;;;;;5043708;28;20427;-54
2021/01/26 04:17:15;;;;;;;10.82;5.30;;;0.80;99.90;;;;;;5066545;28;20410;-54
2021/01/26 04:20:01;;;;;;;10.05;4.78;;;1.00;99.90;;;;;;5053378;28;20369;-54
2021/01/26 04:22:28;;;;;;;12.48;4.20;;;1.00;99.90;;;;;;5051188;28;20416;-53
2021/01/26 04:24:53;;;;;;;12.93;5.18;;;1.00;99.90;;;;;;5064748;28;20842;-53
2021/01/26 04:27:22;;;;;;;8.13;4.50;;;1.10;99.90;;;;;;5080512;28;20391;-53
2021/01/26 04:29:48;;;;;;;9.80;4.70;;;1.10;99.90;;;;;;5073199;28;20408;-54
2021/01/26 04:32:18;;;;;;;8.25;3.90;;;1.10;99.90;;;;;;5083524;28;20378;-53
2021/01/26 04:34:44;;;;;;;7.00;3.50;;;2.60;99.90;;;;;;5070918;28;20406;-54
2021/01/26 04:37:10;;;;;;;7.47;3.22;;;1.30;99.90;;;;;;5075957;28;20738;-53
2021/01/26 04:39:36;;;;;;;6.82;3.05;;;1.20;99.90;;;;;;5081331;28;20384;-54
2021/01/26 04:42:19;;;;;;;9.98;3.35;;;1.30;99.90;;;;;;5075662;28;20395;-54
2021/01/26 04:45:06;;;;;;;8.50;3.20;;;1.30;99.90;;;;;;5086908;28;20394;-54
2021/01/26 04:47:57;;;;;;;6.95;3.20;;;4.20;99.90;;;;;;5077868;28;20404;-54
2021/01/26 04:50:33;;;;;;;9.15;3.30;;;1.40;99.90;;;;;;5083295;28;20409;-53
2021/01/26 04:53:12;;;;;;;6.75;2.90;;;1.40;99.90;;;;;;5081684;28;20396;-54
2021/01/26 04:55:56;;;;;;;6.38;3.00;;;1.50;99.90;;;;;;5078035;28;20471;-54
2021/01/26 04:58:40;;;;;;;7.18;3.38;;;1.60;99.90;;;;;;5083715;28;20415;-53
2021/01/26 05:01:26;;;;;;;11.30;3.60;;;4.40;99.90;;;;;;5086835;28;20494;-54
2021/01/26 05:04:01;;;;;;;8.57;3.38;;;1.70;99.90;;;;;;5086916;28;20394;-54
2021/01/26 05:06:36;;;;;;;10.90;3.80;;;1.70;99.90;;;;;;5084363;28;20477;-54
2021/01/26 05:09:07;;;;;;;8.32;3.67;;;1.70;99.90;;;;;;5079586;28;20415;-54
2021/01/26 05:11:37;;;;;;;8.18;3.58;;;1.70;99.90;;;;;;5078617;28;20401;-54
2021/01/26 05:14:12;;;;;;;8.20;3.03;;;1.80;99.90;;;;;;5088208;28;20428;-53
2021/01/26 05:16:46;;;;;;;7.07;3.05;;;1.90;99.90;;;;;;5075684;28;20554;-53
2021/01/26 05:19:17;;;;;;;9.23;3.20;;;1.90;99.90;;;;;;5081543;28;20838;-54
2021/01/26 05:22:19;;;;;;;7.22;2.60;;;1.70;99.90;;;;;;5073771;28;20396;-54
2021/01/26 05:24:57;;;;;;;6.27;2.73;;;1.80;99.90;;;;;;5071539;28;20502;-54
2021/01/26 05:27:23;;;;;;;6.97;2.22;;;1.80;99.90;;;;;;5073691;28;20403;-53
2021/01/26 05:29:50;;;;;;;9.55;2.50;;;1.50;99.90;;;;;;5083766;28;20382;-54
2021/01/26 05:32:15;;;;;;;7.50;2.20;;;1.90;99.90;;;;;;5073373;28;20426;-54
2021/01/26 05:34:42;;;;;;;5.47;2.37;;;1.60;99.90;;;;;;5073624;28;20394;-54
2021/01/26 05:37:12;;;;;;;6.18;2.30;;;1.60;99.90;;;;;;5068566;28;20398;-53
2021/01/26 05:39:57;;;;;;;7.65;2.70;;;4.30;99.90;;;;;;5074441;28;20991;-54
2021/01/26 05:42:24;;;;;;;6.60;2.20;;;1.60;99.90;;;;;;5074101;28;20380;-53
2021/01/26 05:44:54;;;;;;;4.90;1.73;;;1.70;99.90;;;;;;5075872;28;20423;-53
2021/01/26 05:47:29;;;;;;;5.38;1.90;;;1.60;99.90;;;;;;5082026;28;20402;-53
2021/01/26 05:49:55;;;;;;;5.85;1.80;;;3.40;99.90;;;;;;5076498;28;20400;-54
2021/01/26 05:52:30;;;;;;;5.80;1.77;;;1.70;99.90;;;;;;5073592;28;20428;-53
2021/01/26 05:54:59;;;;;;;6.72;2.03;;;2.80;99.90;;;;;;5066473;28;20396;-54
2021/01/26 05:57:32;;;;;;;4.85;1.80;;;1.70;99.90;;;;;;5081075;28;20424;-53
2021/01/26 06:00:18;;;;;;;4.85;1.60;;;1.70;99.90;;;;;;5086894;28;20871;-53
2021/01/26 06:02:44;;;;;;;6.10;1.80;;;1.70;99.90;;;;;;5070023;28;20402;-54
2021/01/26 06:05:17;;;;;;;6.07;2.50;;;1.90;99.90;;;;;;5069581;28;20403;-54
2021/01/26 06:07:43;;;;;;;6.30;2.35;;;1.90;99.90;;;;;;5074543;28;20461;-54
2021/01/26 06:10:20;;;;;;;8.02;2.20;;;1.80;99.90;;;;;;5083847;28;20995;-54
2021/01/26 06:12:54;;;;;;;5.85;1.80;;;1.80;99.90;;;;;;5074622;28;20397;-54
2021/01/26 06:15:26;;;;;;;5.85;1.95;;;1.80;99.90;;;;;;5080195;28;20476;-53
2021/01/26 06:18:18;;;;;;;4.20;1.70;;;3.20;99.90;;;;;;5089317;28;20431;-54
2021/01/26 06:21:01;;;;;;;4.97;2.00;;;1.80;99.90;;;;;;5088103;28;20478;-54
2021/01/26 06:23:29;;;;;;;6.03;2.00;;;1.90;99.90;;;;;;5065283;28;20788;-54
2021/01/26 06:25:58;;;;;;;6.05;2.00;;;1.90;99.90;;;;;;5065657;28;20594;-54
2021/01/26 06:28:27;;;;;;;4.47;1.83;;;1.90;99.90;;;;;;5057732;28;20427;-54
2021/01/26 06:30:58;;;;;;;9.73;2.38;;;2.20;99.90;;;;;;5064895;28;20404;-54
2021/01/26 06:33:29;;;;;;;9.20;2.40;;;1.80;99.90;;;;;;5058712;28;20400;-53
2021/01/26 06:36:17;;;;;;;5.17;1.80;;;4.10;99.90;;;;;;5057393;28;20415;-54
2021/01/26 06:39:19;;;;;;;4.28;1.75;;;1.70;99.90;;;;;;5062040;28;20472;-53
2021/01/26 06:42:09;;;;;;;5.80;2.33;;;1.70;99.90;;;;;;5059346;28;20400;-54
2021/01/26 06:44:46;;;;;;;7.03;2.30;;;1.70;99.90;;;;;;5062152;28;20437;-54
2021/01/26 06:47:30;;;;;;;5.07;2.15;;;1.70;99.90;;;;;;5061607;28;20504;-54
2021/01/26 06:50:09;;;;;;;5.50;1.90;;;1.60;99.90;;;;;;5059339;28;20430;-54
2021/01/26 06:52:52;;;;;;;5.00;1.50;;;1.60;99.90;;;;;;5055315;28;20400;-53
2021/01/26 06:55:42;;;;;;;4.40;2.10;;;1.50;99.90;;;;;;5055404;28;20956;-53
2021/01/26 06:58:38;;;;;;;5.28;2.17;;;1.60;99.90;;;;;;5054703;28;20410;-54
2021/01/26 07:01:16;;;;;;;6.40;2.10;;;1.50;99.90;;;;;;5063404;28;20402;-54
2021/01/26 07:03:57;;;;;;;7.18;2.08;;;1.50;99.90;;;;;;5059363;28;20400;-54
2021/01/26 07:06:40;;;;;;;6.30;2.33;;;1.50;99.90;;;;;;5063102;28;20419;-53
2021/01/26 07:09:15;;;;;;;4.97;2.30;;;3.80;99.90;;;;;;5067971;28;20391;-54
2021/01/26 07:12:06;;;;;;;6.85;2.17;;;1.60;99.90;;;;;;5060263;28;21042;-54
2021/01/26 07:14:42;;;;;;;8.57;2.40;;;1.60;99.90;;;;;;5066255;28;20913;-53
2021/01/26 07:17:09;;;;;;;6.70;2.00;;;4.00;99.90;;;;;;5064184;28;20403;-53
2021/01/26 07:19:58;;;;;;;6.22;2.17;;;1.50;99.90;;;;;;5061840;28;20425;-53
2021/01/26 07:22:45;;;;;;;6.63;2.88;;;1.60;99.90;;;;;;5036589;28;20897;-53
2021/01/26 07:25:22;;;;;;;7.60;2.70;;;1.60;99.90;;;;;;5060487;28;20803;-54
2021/01/26 07:28:19;;;;;;;8.30;2.63;;;1.60;99.90;;;;;;5085158;28;20446;-53
2021/01/26 07:30:47;;;;;;;6.28;2.90;;;1.60;99.90;;;;;;5083836;28;20405;-54
2021/01/26 07:33:23;;;;;;;7.43;2.90;;;1.60;99.90;;;;;;5085269;28;20475;-54
2021/01/26 07:36:16;;;;;;;6.30;3.00;;;1.60;99.90;;;;;;5084154;28;20838;-53
2021/01/26 07:38:54;;;;;;;6.68;2.55;;;1.50;99.90;;;;;;5086595;28;20393;-54
2021/01/26 07:41:47;;;;;;;10.27;3.40;;;1.50;99.90;;;;;;5082372;28;20374;-54
2021/01/26 07:44:27;;;;;;;7.82;3.97;;;1.50;99.90;;;;;;5085707;28;20400;-54
2021/01/26 07:46:59;;;;;;;8.30;4.03;;;1.50;99.90;;;;;;5074777;28;20419;-54
2021/01/26 07:49:35;;;;;;;8.20;4.13;;;2.70;99.90;;;;;;5081729;28;20751;-53
2021/01/26 07:52:03;;;;;;;7.32;3.20;;;1.40;99.90;;;;;;5074525;28;21867;-53
2021/01/26 07:54:53;;;;;;;8.32;4.13;;;1.40;99.90;;;;;;5077215;28;20535;-53
2021/01/26 07:57:25;;;;;;;14.48;4.30;;;0.90;99.90;;;;;;5063147;28;20446;-54
2021/01/26 07:59:53;;;;;;;11.50;4.20;;;1.50;99.90;;;;;;5082639;28;20426;-54
2021/01/26 08:02:27;;;;;;;9.52;4.70;;;4.20;99.90;;;;;;5078558;28;20485;-54
2021/01/26 08:04:53;;;;;;;8.95;3.70;;;1.80;99.90;;;;;;5083426;28;20856;-54
2021/01/26 08:07:28;;;;;;;7.40;3.50;;;1.50;99.90;;;;;;5081793;28;20408;-54
2021/01/26 08:09:55;;;;;;;8.98;4.28;;;1.50;99.90;;;;;;5085745;28;20446;-54
2021/01/26 08:12:30;;;;;;;8.30;4.10;;;1.50;99.90;;;;;;5076217;28;20483;-54
2021/01/26 08:15:17;;;;;;;6.57;3.60;;;0.40;99.90;;;;;;5085137;28;20442;-54
2021/01/26 08:17:44;;;;;;;9.90;4.57;;;1.50;99.90;;;;;;5076026;28;20394;-54
2021/01/26 08:20:32;;;;;;;8.80;3.28;;;1.50;99.90;;;;;;5088631;28;20409;-54
2021/01/26 08:23:10;;;;;;;9.40;4.85;;;1.50;99.90;;;;;;5076972;28;20420;-54
2021/01/26 08:25:42;;;;;;;8.23;3.80;;;2.90;99.90;;;;;;5078197;28;20485;-54
2021/01/26 08:28:42;;;;;;;8.83;4.20;;;1.50;99.90;;;;;;5085764;28;20405;-54
2021/01/26 08:31:41;;;;;;;8.77;3.47;;;1.50;99.90;;;;;;5086879;28;20394;-54
2021/01/26 08:34:22;;;;;;;9.07;4.40;;;1.90;99.90;;;;;;5071872;28;20405;-54
2021/01/26 08:37:07;;;;;;;10.57;4.05;;;1.50;99.90;;;;;;5091917;28;20386;-54
2021/01/26 08:39:49;;;;;;;11.00;3.70;;;3.70;99.90;;;;;;5085418;28;20395;-54
2021/01/26 08:42:52;;;;;;;9.90;3.58;;;4.20;99.90;;;;;;5087592;28;20378;-54
2021/01/26 08:45:26;;;;;;;6.63;3.45;;;1.50;99.90;;;;;;5026497;28;20433;-54
2021/01/26 08:47:57;;;;;;;9.75;3.40;;;1.60;99.90;;;;;;5082446;28;20923;-54
2021/01/26 08:50:29;;;;;;;10.33;3.57;;;1.70;99.90;;;;;;5089346;28;20957;-53
2021/01/26 08:53:19;;;;;;;6.45;3.20;;;1.70;99.90;;;;;;5057482;28;21035;-53
2021/01/26 08:55:48;;;;;;;9.13;3.70;;;1.70;99.90;;;;;;5083647;28;20408;-54
2021/01/26 08:58:43;;;;;;;5.80;2.67;;;1.80;99.90;;;;;;5085459;28;20489;-54
2021/01/26 09:01:38;;;;;;;6.20;2.80;;;3.70;99.90;;;;;;5086128;28;20383;-54
2021/01/26 09:04:27;;;;;;;7.78;3.40;;;1.70;99.90;;;;;;5090343;28;20397;-53
2021/01/26 09:06:53;;;;;;;7.22;3.00;;;1.70;99.90;;;;;;5070145;28;20436;-56
2021/01/26 09:09:21;;;;;;;6.70;3.28;;;4.40;99.90;;;;;;5082026;28;20465;-58
2021/01/26 09:11:55;;;;;;;5.87;2.37;;;1.70;99.90;;;;;;5083237;28;20380;-55
2021/01/26 09:14:44;;;;;;;6.13;2.80;;;1.80;99.90;;;;;;5082754;28;20451;-53
2021/01/26 09:17:12;;;;;;;8.00;2.30;;;1.80;99.90;;;;;;5084906;28;20381;-56
2021/01/26 09:19:46;;;;;;;5.18;2.30;;;2.10;99.90;;;;;;5083884;28;20438;-53
2021/01/26 09:22:29;;;;;;;4.80;2.40;;;2.20;99.90;;;;;;5078308;28;20402;-55
2021/01/26 09:25:20;;;;;;;7.22;2.60;;;2.30;99.90;;;;;;5085079;28;20422;-53
2021/01/26 09:27:57;;;;;;;5.78;2.95;;;2.40;99.90;;;;;;5084979;28;20391;-55
2021/01/26 09:30:25;;;;;;;4.20;2.38;;;2.60;99.90;;;;;;5087811;28;20401;-55
2021/01/26 09:33:11;;;;;;;7.50;2.60;;;2.60;99.90;;;;;;5084262;28;20401;-55
2021/01/26 09:35:40;;;;;;;3.42;1.50;;;2.30;99.90;;;;;;5085461;28;20383;-55
2021/01/26 09:38:11;;;;;;;4.60;2.10;;;2.30;99.90;;;;;;5087710;28;20798;-55
2021/01/26 09:40:39;;;;;;;5.10;2.40;;;2.60;99.90;;;;;;5083973;28;20473;-55
2021/01/26 09:43:11;;;;;;;6.95;2.00;;;2.20;99.90;;;;;;5084790;28;20450;-55
2021/01/26 09:45:38;;;;;;;6.20;2.10;;;2.20;99.90;;;;;;5085839;28;20410;-55
2021/01/26 09:48:04;;;;;;;6.47;2.40;;;2.20;99.90;;;;;;5065412;28;20413;-55
2021/01/26 09:50:30;;;;;;;6.88;2.85;;;2.30;99.90;;;;;;5084979;28;20483;-55
2021/01/26 09:52:58;;;;;;;6.20;2.20;;;3.30;99.90;;;;;;5078185;28;20466;-55
2021/01/26 09:55:26;;;;;;;6.70;2.20;;;2.20;99.90;;;;;;5079426;28;21022;-55
2021/01/26 09:57:54;;;;;;;5.30;2.35;;;4.10;99.90;;;;;;5084250;28;20469;-54
2021/01/26 10:00:23;;;;;;;6.55;2.72;;;2.60;99.90;;;;;;5089673;28;20731;-54
2021/01/26 10:02:53;;;;;;;5.53;2.20;;;2.40;99.90;;;;;;5082611;28;20716;-55
2021/01/26 10:05:23;;;;;;;5.88;2.08;;;2.40;99.90;;;;;;5086668;28;20797;-55
2021/01/26 10:08:20;;;;;;;5.25;2.05;;;2.70;99.90;;;;;;5081299;28;20403;-55
2021/01/26 10:10:46;;;;;;;6.75;2.63;;;2.40;99.90;;;;;;5087177;28;20402;-54
2021/01/26 10:13:24;;;;;;;4.47;2.20;;;2.40;99.90;;;;;;5082164;28;20397;-55
2021/01/26 10:15:50;;;;;;;6.50;2.30;;;2.40;99.90;;;;;;5085841;28;20414;-55
2021/01/26 10:18:25;;;;;;;5.68;2.05;;;2.50;99.90;;;;;;5088639;28;20461;-54
2021/01/26 10:20:55;;;;;;;6.07;2.17;;;3.70;99.90;;;;;;5087163;28;20472;-55
2021/01/26 10:23:34;;;;;;;6.40;2.30;;;4.90;99.90;;;;;;5075037;28;20425;-55
2021/01/26 10:26:16;;;;;;;6.07;1.90;;;2.70;99.90;;;;;;5079623;28;20434;-55
2021/01/26 10:29:12;;;;;;;4.70;1.85;;;2.60;99.90;;;;;;5084748;28;20398;-54
2021/01/26 10:31:53;;;;;;;4.70;1.80;;;2.50;99.90;;;;;;5084286;28;20378;-55
2021/01/26 10:34:24;;;;;;;7.63;2.40;;;2.90;99.90;;;;;;5082149;28;20393;-55
2021/01/26 10:36:50;;;;;;;5.22;1.95;;;2.50;99.90;;;;;;5083033;28;20930;-55
2021/01/26 10:39:29;;;;;;;5.90;1.90;;;2.60;99.90;;;;;;5086125;28;20390;-54
2021/01/26 10:42:12;;;;;;;4.72;2.05;;;2.50;99.90;;;;;;5078543;28;20413;-54
2021/01/26 10:44:49;;;;;;;5.90;2.20;;;2.50;99.90;;;;;;5088181;28;20378;-54
2021/01/26 10:47:21;;;;;;;8.00;2.50;;;2.50;99.90;;;;;;5089449;28;20386;-55
2021/01/26 10:49:54;;;;;;;5.60;1.95;;;2.90;99.90;;;;;;5086970;28;20382;-54
2021/01/26 10:52:43;;;;;;;5.15;2.15;;;3.00;99.90;;;;;;5077830;28;20383;-54
2021/01/26 10:55:12;;;;;;;4.40;1.90;;;2.40;99.90;;;;;;5085159;28;20413;-54
2021/01/26 10:57:40;;;;;;;5.63;2.25;;;2.40;99.90;;;;;;5085776;28;20933;-54
2021/01/26 11:00:07;;;;;;;5.40;2.30;;;3.20;99.90;;;;;;5085480;28;20389;-54
2021/01/26 11:02:33;;;;;;;5.72;2.10;;;2.40;99.90;;;;;;5083297;28;20386;-54
2021/01/26 11:04:59;;;;;;;5.50;2.20;;;2.40;99.90;;;;;;5069917;28;20404;-56
2021/01/26 11:07:25;;;;;;;4.93;2.47;;;2.40;99.90;;;;;;5086973;28;20386;-54
2021/01/26 11:09:51;;;;;;;4.20;1.40;;;2.40;99.90;;;;;;5081430;28;20378;-55
2021/01/26 11:12:19;;;;;;;7.70;2.50;;;2.20;99.90;;;;;;5081971;28;20763;-55
2021/01/26 11:14:45;;;;;;;5.50;2.20;;;4.30;99.90;;;;;;5085075;28;20465;-55
2021/01/26 11:17:11;;;;;;;7.63;2.92;;;4.30;99.90;;;;;;5081076;28;20412;-55
2021/01/26 11:19:37;;;;;;;6.85;2.55;;;2.30;99.90;;;;;;5076017;28;20389;-55
2021/01/26 11:22:03;;;;;;;6.22;2.22;;;2.30;99.90;;;;;;5079210;28;20391;-54
2021/01/26 11:24:28;;;;;;;8.80;3.20;;;2.30;99.90;;;;;;5077021;28;20407;-56
2021/01/26 11:26:54;;;;;;;7.53;3.07;;;4.30;99.90;;;;;;5084373;28;20854;-55
2021/01/26 11:29:20;;;;;;;6.90;2.40;;;4.80;99.90;;;;;;5084887;28;20751;-55
2021/01/26 11:31:46;;;;;;;5.30;2.53;;;2.50;99.90;;;;;;5084846;28;20403;-55
2021/01/26 11:34:12;;;;;;;7.00;3.10;;;2.50;99.90;;;;;;5087464;28;20416;-55
2021/01/26 11:36:38;;;;;;;5.00;2.13;;;4.10;99.90;;;;;;5080244;28;20386;-55
2021/01/26 11:39:04;;;;;;;5.75;2.50;;;3.80;99.90;;;;;;5073773;28;20414;-55
2021/01/26 11:41:30;;;;;;;6.10;3.42;;;2.30;99.90;;;;;;5080482;28;20390;-54
2021/01/26 11:43:56;;;;;;;7.83;3.40;;;2.70;99.90;;;;;;5079903;28;20468;-55
2021/01/26 11:46:21;;;;;;;7.17;2.77;;;3.90;99.90;;;;;;5077524;28;20516;-55
2021/01/26 11:48:47;;;;;;;5.88;2.85;;;2.30;99.90;;;;;;5081931;28;20381;-55
2021/01/26 11:51:13;;;;;;;9.73;3.70;;;3.70;99.90;;;;;;5075380;28;20393;-55
2021/01/26 11:53:38;;;;;;;7.10;3.90;;;2.90;99.90;;;;;;5066677;28;20390;-55
2021/01/26 11:56:05;;;;;;;9.48;3.60;;;2.20;99.90;;;;;;5079684;28;20447;-55
2021/01/26 11:58:31;;;;;;;6.10;3.17;;;2.30;99.90;;;;;;5087548;28;20476;-55
2021/01/26 12:00:57;;;;;;;6.30;3.10;;;5.20;99.90;;;;;;5079557;28;20510;-56
2021/01/26 12:03:23;;;;;;;8.90;3.40;;;2.50;99.90;;;;;;5085638;28;20438;-55
2021/01/26 12:05:49;;;;;;;6.65;2.95;;;4.30;99.90;;;;;;5083989;28;20767;-55
2021/01/26 12:08:15;;;;;;;6.82;3.30;;;3.20;99.90;;;;;;5082801;28;20859;-56
2021/01/26 12:10:41;;;;;;;8.23;3.60;;;3.20;99.90;;;;;;5085266;28;20879;-56
2021/01/26 12:13:08;;;;;;;6.38;3.10;;;3.20;99.90;;;;;;5085127;28;20786;-54
2021/01/26 12:15:37;;;;;;;7.75;3.72;;;3.00;99.90;;;;;;5083419;28;20760;-54
2021/01/26 12:18:03;;;;;;;7.28;2.92;;;2.90;99.90;;;;;;5072445;28;20391;-55
2021/01/26 12:20:30;;;;;;;10.27;4.00;;;2.90;99.90;;;;;;5083799;28;20374;-54
2021/01/26 12:22:57;;;;;;;6.22;3.20;;;3.10;99.90;;;;;;5081422;28;20389;-54
2021/01/26 12:25:25;;;;;;;11.18;3.53;;;3.50;99.90;;;;;;5085248;28;20425;-54
2021/01/26 12:27:51;;;;;;;6.05;2.97;;;3.40;99.90;;;;;;5088426;28;20394;-55
2021/01/26 12:30:17;;;;;;;6.75;3.47;;;4.50;99.90;;;;;;5091914;28;20457;-54
2021/01/26 12:32:43;;;;;;;9.30;4.75;;;3.20;99.90;;;;;;5085058;28;20389;-55
2021/01/26 12:35:33;;;;;;;10.20;3.97;;;3.80;99.90;;;;;;5091948;28;20405;-55
2021/01/26 12:38:00;;;;;;;9.80;3.10;;;3.20;99.90;;;;;;5089125;28;20398;-55
2021/01/26 12:40:27;;;;;;;6.63;3.10;;;4.10;99.90;;;;;;5084750;28;20470;-54
2021/01/26 12:42:52;;;;;;;8.70;3.67;;;3.00;99.90;;;;;;5087454;28;20390;-55
2021/01/26 12:45:21;;;;;;;7.90;3.25;;;3.00;99.90;;;;;;5086727;28;20405;-55
2021/01/26 12:47:47;;;;;;;5.93;2.50;;;3.10;99.90;;;;;;5084789;28;20579;-54
2021/01/26 12:50:17;;;;;;;6.88;2.90;;;2.90;99.90;;;;;;5088543;28;20414;-55
2021/01/26 12:52:43;;;;;;;7.57;3.47;;;3.00;99.90;;;;;;5073751;28;20946;-54
2021/01/26 12:55:10;;;;;;;9.97;3.73;;;3.10;99.90;;;;;;5080664;28;20901;-54
2021/01/26 12:57:36;;;;;;;7.10;3.35;;;3.20;99.90;;;;;;5075100;28;20442;-55
2021/01/26 13:00:05;;;;;;;8.25;2.83;;;3.20;99.90;;;;;;5079067;28;20392;-54
2021/01/26 13:02:31;;;;;;;9.67;3.40;;;3.20;99.90;;;;;;5072534;28;20820;-54
2021/01/26 13:04:56;;;;;;;8.87;3.70;;;3.30;99.90;;;;;;5078388;28;20374;-54
2021/01/26 13:07:23;;;;;;;6.43;2.97;;;3.50;99.90;;;;;;5080946;28;20505;-55
2021/01/26 13:09:49;;;;;;;8.80;3.33;;;3.40;99.90;;;;;;5088118;28;20386;-54
2021/01/26 13:12:15;;;;;;;7.93;3.42;;;3.20;99.90;;;;;;5079416;28;20475;-55
2021/01/26 13:14:41;;;;;;;6.07;3.28;;;3.30;99.90;;;;;;5086714;28;20465;-54
2021/01/26 13:17:07;;;;;;;7.35;3.90;;;3.20;99.90;;;;;;5076852;28;20426;-55
2021/01/26 13:19:33;;;;;;;9.13;3.45;;;4.30;99.90;;;;;;5088139;28;20871;-55
2021/01/26 13:21:59;;;;;;;8.35;3.50;;;3.30;99.90;;;;;;5084003;28;20895;-54
2021/01/26 13:24:25;;;;;;;9.93;3.58;;;3.20;99.90;;;;;;5080025;28;20400;-55